sensor_id;sensor_type;location;lat;lon;timestamp;P1;durP1;ratioP1;P2;durP2;ratioP2
33654;SDS011;19997;51.274;22.506;2023-03-31T00:07:53;20.88;;;10.90;;
33654;SDS011;19997;51.274;22.506;2023-03-31T00:10:25;25.42;;;11.45;;
33654;SDS011;19997;51.274;22.506;2023-03-31T00:12:52;20.52;;;10.55;;
33654;SDS011;19997;51.274;22.506;2023-03-31T00:15:19;17.98;;;10.32;;
33654;SDS011;19997;51.274;22.506;2023-03-31T00:17:46;19.40;;;10.77;;
33654;SDS011;19997;51.274;22.506;2023-03-31T00:20:14;22.50;;;10.75;;
33654;SDS011;19997;51.274;22.506;2023-03-31T00:22:41;22.05;;;10.82;;
33654;SDS011;19997;51.274;22.506;2023-03-31T00:25:12;23.30;;;12.25;;
33654;SDS011;19997;51.274;22.506;2023-03-31T00:27:40;19.57;;;10.70;;
33654;SDS011;19997;51.274;22.506;2023-03-31T00:30:09;21.92;;;10.70;;
33654;SDS011;19997;51.274;22.506;2023-03-31T00:32:37;24.13;;;11.25;;
33654;SDS011;19997;51.274;22.506;2023-03-31T00:35:04;20.13;;;11.20;;
33654;SDS011;19997;51.274;22.506;2023-03-31T00:37:32;22.38;;;11.35;;
33654;SDS011;19997;51.274;22.506;2023-03-31T00:40:00;23.42;;;11.65;;
33654;SDS011;19997;51.274;22.506;2023-03-31T00:42:32;26.05;;;11.73;;
33654;SDS011;19997;51.274;22.506;2023-03-31T00:45:20;20.17;;;11.13;;
33654;SDS011;19997;51.274;22.506;2023-03-31T00:47:53;19.75;;;11.68;;
33654;SDS011;19997;51.274;22.506;2023-03-31T00:50:23;22.15;;;11.90;;
33654;SDS011;19997;51.274;22.506;2023-03-31T00:52:55;21.42;;;11.00;;
33654;SDS011;19997;51.274;22.506;2023-03-31T00:55:27;22.73;;;10.98;;
33654;SDS011;19997;51.274;22.506;2023-03-31T00:58:02;23.75;;;12.70;;
33654;SDS011;19997;51.274;22.506;2023-03-31T01:00:31;28.00;;;11.75;;
33654;SDS011;19997;51.274;22.506;2023-03-31T01:02:59;18.38;;;11.82;;
33654;SDS011;19997;51.274;22.506;2023-03-31T01:05:31;22.50;;;12.30;;
33654;SDS011;19997;51.274;22.506;2023-03-31T01:08:02;24.33;;;11.98;;
33654;SDS011;19997;51.274;22.506;2023-03-31T01:10:32;23.70;;;11.80;;
33654;SDS011;19997;51.274;22.506;2023-03-31T01:13:07;21.80;;;12.57;;
33654;SDS011;19997;51.274;22.506;2023-03-31T01:15:35;24.70;;;12.67;;
33654;SDS011;19997;51.274;22.506;2023-03-31T01:18:03;21.38;;;12.30;;
33654;SDS011;19997;51.274;22.506;2023-03-31T01:20:33;30.85;;;14.20;;
33654;SDS011;19997;51.274;22.506;2023-03-31T01:29:07;27.48;;;13.80;;
33654;SDS011;19997;51.274;22.506;2023-03-31T01:31:59;25.95;;;14.50;;
33654;SDS011;19997;51.274;22.506;2023-03-31T01:41:27;25.80;;;15.32;;
33654;SDS011;19997;51.274;22.506;2023-03-31T01:44:06;31.42;;;15.52;;
33654;SDS011;19997;51.274;22.506;2023-03-31T01:46:40;31.77;;;15.10;;
33654;SDS011;19997;51.274;22.506;2023-03-31T01:49:18;32.85;;;16.52;;
33654;SDS011;19997;51.274;22.506;2023-03-31T01:51:51;27.20;;;15.13;;
33654;SDS011;19997;51.274;22.506;2023-03-31T01:54:27;27.23;;;15.18;;
33654;SDS011;19997;51.274;22.506;2023-03-31T01:59:49;30.80;;;16.67;;
33654;SDS011;19997;51.274;22.506;2023-03-31T02:02:24;29.38;;;17.08;;
33654;SDS011;19997;51.274;22.506;2023-03-31T02:04:56;30.27;;;17.60;;
33654;SDS011;19997;51.274;22.506;2023-03-31T02:07:26;31.15;;;15.00;;
33654;SDS011;19997;51.274;22.506;2023-03-31T02:09:58;29.92;;;15.07;;
33654;SDS011;19997;51.274;22.506;2023-03-31T02:12:32;33.13;;;17.08;;
33654;SDS011;19997;51.274;22.506;2023-03-31T02:15:03;30.77;;;16.35;;
33654;SDS011;19997;51.274;22.506;2023-03-31T02:17:35;30.80;;;17.65;;
33654;SDS011;19997;51.274;22.506;2023-03-31T02:20:08;34.38;;;17.85;;
33654;SDS011;19997;51.274;22.506;2023-03-31T02:22:38;33.80;;;17.45;;
33654;SDS011;19997;51.274;22.506;2023-03-31T02:25:09;34.03;;;18.27;;
33654;SDS011;19997;51.274;22.506;2023-03-31T02:27:42;35.13;;;17.92;;
33654;SDS011;19997;51.274;22.506;2023-03-31T02:30:12;34.90;;;19.42;;
33654;SDS011;19997;51.274;22.506;2023-03-31T02:32:40;34.25;;;18.20;;
33654;SDS011;19997;51.274;22.506;2023-03-31T02:35:09;41.70;;;19.13;;
33654;SDS011;19997;51.274;22.506;2023-03-31T02:37:37;40.03;;;19.40;;
33654;SDS011;19997;51.274;22.506;2023-03-31T02:40:06;39.65;;;19.92;;
33654;SDS011;19997;51.274;22.506;2023-03-31T02:42:36;35.60;;;19.75;;
33654;SDS011;19997;51.274;22.506;2023-03-31T02:45:06;43.55;;;21.38;;
33654;SDS011;19997;51.274;22.506;2023-03-31T02:48:04;41.07;;;20.20;;
33654;SDS011;19997;51.274;22.506;2023-03-31T02:50:33;40.83;;;21.02;;
33654;SDS011;19997;51.274;22.506;2023-03-31T02:53:10;39.30;;;20.45;;
33654;SDS011;19997;51.274;22.506;2023-03-31T02:55:51;42.50;;;20.50;;
33654;SDS011;19997;51.274;22.506;2023-03-31T02:58:32;41.20;;;21.20;;
33654;SDS011;19997;51.274;22.506;2023-03-31T03:01:16;44.25;;;23.73;;
33654;SDS011;19997;51.274;22.506;2023-03-31T03:03:57;40.40;;;21.20;;
33654;SDS011;19997;51.274;22.506;2023-03-31T03:06:35;40.08;;;20.60;;
33654;SDS011;19997;51.274;22.506;2023-03-31T03:09:25;38.67;;;20.92;;
33654;SDS011;19997;51.274;22.506;2023-03-31T03:12:04;39.53;;;21.92;;
33654;SDS011;19997;51.274;22.506;2023-03-31T03:14:37;38.42;;;20.73;;
33654;SDS011;19997;51.274;22.506;2023-03-31T03:17:15;38.63;;;20.35;;
33654;SDS011;19997;51.274;22.506;2023-03-31T03:19:49;45.35;;;21.52;;
33654;SDS011;19997;51.274;22.506;2023-03-31T03:22:19;44.67;;;21.88;;
33654;SDS011;19997;51.274;22.506;2023-03-31T03:24:46;50.85;;;24.45;;
33654;SDS011;19997;51.274;22.506;2023-03-31T03:27:14;44.42;;;23.63;;
33654;SDS011;19997;51.274;22.506;2023-03-31T03:29:41;38.30;;;22.33;;
33654;SDS011;19997;51.274;22.506;2023-03-31T03:32:08;46.42;;;23.45;;
33654;SDS011;19997;51.274;22.506;2023-03-31T03:34:37;47.28;;;24.40;;
33654;SDS011;19997;51.274;22.506;2023-03-31T03:37:04;52.03;;;26.40;;
33654;SDS011;19997;51.274;22.506;2023-03-31T03:39:32;48.65;;;24.63;;
33654;SDS011;19997;51.274;22.506;2023-03-31T03:41:59;40.38;;;21.83;;
33654;SDS011;19997;51.274;22.506;2023-03-31T03:44:26;42.80;;;21.65;;
33654;SDS011;19997;51.274;22.506;2023-03-31T03:46:53;48.42;;;22.73;;
33654;SDS011;19997;51.274;22.506;2023-03-31T03:49:20;47.25;;;23.92;;
33654;SDS011;19997;51.274;22.506;2023-03-31T03:51:48;47.38;;;22.85;;
33654;SDS011;19997;51.274;22.506;2023-03-31T03:54:15;41.22;;;21.20;;
33654;SDS011;19997;51.274;22.506;2023-03-31T03:56:43;42.05;;;22.05;;
33654;SDS011;19997;51.274;22.506;2023-03-31T03:59:10;41.13;;;22.05;;
33654;SDS011;19997;51.274;22.506;2023-03-31T04:01:37;45.28;;;23.52;;
33654;SDS011;19997;51.274;22.506;2023-03-31T04:04:05;40.55;;;21.90;;
33654;SDS011;19997;51.274;22.506;2023-03-31T04:06:31;41.55;;;22.38;;
33654;SDS011;19997;51.274;22.506;2023-03-31T04:09:00;46.65;;;24.35;;
33654;SDS011;19997;51.274;22.506;2023-03-31T04:11:28;50.30;;;25.17;;
33654;SDS011;19997;51.274;22.506;2023-03-31T04:13:55;48.40;;;25.33;;
33654;SDS011;19997;51.274;22.506;2023-03-31T04:16:22;49.03;;;24.77;;
33654;SDS011;19997;51.274;22.506;2023-03-31T04:18:49;43.80;;;23.55;;
33654;SDS011;19997;51.274;22.506;2023-03-31T04:21:17;47.20;;;23.23;;
33654;SDS011;19997;51.274;22.506;2023-03-31T04:23:48;46.55;;;23.45;;
33654;SDS011;19997;51.274;22.506;2023-03-31T04:26:25;43.50;;;23.52;;
33654;SDS011;19997;51.274;22.506;2023-03-31T04:29:06;46.63;;;23.33;;
33654;SDS011;19997;51.274;22.506;2023-03-31T04:31:34;41.97;;;22.85;;
33654;SDS011;19997;51.274;22.506;2023-03-31T04:34:07;42.45;;;23.90;;
33654;SDS011;19997;51.274;22.506;2023-03-31T04:39:06;44.95;;;22.88;;
33654;SDS011;19997;51.274;22.506;2023-03-31T04:41:36;41.42;;;21.63;;
33654;SDS011;19997;51.274;22.506;2023-03-31T04:44:03;42.85;;;23.40;;
33654;SDS011;19997;51.274;22.506;2023-03-31T04:46:31;40.78;;;23.35;;
33654;SDS011;19997;51.274;22.506;2023-03-31T04:48:58;41.22;;;21.98;;
33654;SDS011;19997;51.274;22.506;2023-03-31T04:51:25;47.67;;;23.02;;
33654;SDS011;19997;51.274;22.506;2023-03-31T04:53:52;41.58;;;21.52;;
33654;SDS011;19997;51.274;22.506;2023-03-31T04:56:19;48.47;;;22.08;;
33654;SDS011;19997;51.274;22.506;2023-03-31T04:58:48;40.47;;;21.05;;
33654;SDS011;19997;51.274;22.506;2023-03-31T05:01:15;38.30;;;21.08;;
33654;SDS011;19997;51.274;22.506;2023-03-31T05:03:43;33.75;;;21.50;;
33654;SDS011;19997;51.274;22.506;2023-03-31T05:06:12;32.08;;;19.88;;
33654;SDS011;19997;51.274;22.506;2023-03-31T05:08:39;38.33;;;18.35;;
33654;SDS011;19997;51.274;22.506;2023-03-31T05:11:06;35.72;;;18.25;;
33654;SDS011;19997;51.274;22.506;2023-03-31T05:13:34;38.10;;;19.55;;
33654;SDS011;19997;51.274;22.506;2023-03-31T05:16:09;29.67;;;17.67;;
33654;SDS011;19997;51.274;22.506;2023-03-31T05:18:38;31.27;;;18.73;;
33654;SDS011;19997;51.274;22.506;2023-03-31T05:21:11;28.83;;;17.60;;
33654;SDS011;19997;51.274;22.506;2023-03-31T05:23:40;30.88;;;16.95;;
33654;SDS011;19997;51.274;22.506;2023-03-31T05:26:07;30.45;;;16.58;;
33654;SDS011;19997;51.274;22.506;2023-03-31T05:28:35;26.00;;;15.68;;
33654;SDS011;19997;51.274;22.506;2023-03-31T05:31:03;29.20;;;15.45;;
33654;SDS011;19997;51.274;22.506;2023-03-31T05:33:33;27.52;;;15.30;;
33654;SDS011;19997;51.274;22.506;2023-03-31T05:36:04;27.25;;;13.77;;
33654;SDS011;19997;51.274;22.506;2023-03-31T05:38:32;26.58;;;16.20;;
33654;SDS011;19997;51.274;22.506;2023-03-31T05:40:59;24.50;;;13.60;;
33654;SDS011;19997;51.274;22.506;2023-03-31T05:43:27;24.75;;;14.77;;
33654;SDS011;19997;51.274;22.506;2023-03-31T05:45:54;20.85;;;13.85;;
33654;SDS011;19997;51.274;22.506;2023-03-31T05:48:21;24.20;;;13.52;;
33654;SDS011;19997;51.274;22.506;2023-03-31T05:50:50;20.88;;;12.48;;
33654;SDS011;19997;51.274;22.506;2023-03-31T05:53:17;21.45;;;12.00;;
33654;SDS011;19997;51.274;22.506;2023-03-31T05:55:44;23.42;;;12.60;;
33654;SDS011;19997;51.274;22.506;2023-03-31T05:58:11;21.58;;;11.73;;
33654;SDS011;19997;51.274;22.506;2023-03-31T06:00:38;19.20;;;12.07;;
33654;SDS011;19997;51.274;22.506;2023-03-31T06:03:05;19.48;;;10.70;;
33654;SDS011;19997;51.274;22.506;2023-03-31T06:05:33;16.52;;;11.23;;
33654;SDS011;19997;51.274;22.506;2023-03-31T06:08:02;18.17;;;11.23;;
33654;SDS011;19997;51.274;22.506;2023-03-31T06:10:29;18.33;;;11.48;;
33654;SDS011;19997;51.274;22.506;2023-03-31T06:12:56;20.52;;;11.48;;
33654;SDS011;19997;51.274;22.506;2023-03-31T06:15:23;19.80;;;10.63;;
33654;SDS011;19997;51.274;22.506;2023-03-31T06:17:50;18.92;;;11.55;;
33654;SDS011;19997;51.274;22.506;2023-03-31T06:20:17;23.70;;;12.23;;
33654;SDS011;19997;51.274;22.506;2023-03-31T06:22:44;19.77;;;11.38;;
33654;SDS011;19997;51.274;22.506;2023-03-31T06:25:13;19.75;;;11.77;;
33654;SDS011;19997;51.274;22.506;2023-03-31T06:27:40;19.92;;;11.35;;
33654;SDS011;19997;51.274;22.506;2023-03-31T06:30:08;20.05;;;11.63;;
33654;SDS011;19997;51.274;22.506;2023-03-31T06:32:35;17.23;;;10.90;;
33654;SDS011;19997;51.274;22.506;2023-03-31T06:35:02;22.25;;;11.43;;
33654;SDS011;19997;51.274;22.506;2023-03-31T06:37:30;19.50;;;11.75;;
33654;SDS011;19997;51.274;22.506;2023-03-31T06:39:57;17.83;;;11.55;;
33654;SDS011;19997;51.274;22.506;2023-03-31T06:42:25;18.35;;;11.65;;
33654;SDS011;19997;51.274;22.506;2023-03-31T06:44:52;20.67;;;11.80;;
33654;SDS011;19997;51.274;22.506;2023-03-31T06:47:20;15.35;;;8.90;;
33654;SDS011;19997;51.274;22.506;2023-03-31T06:49:47;16.05;;;9.95;;
33654;SDS011;19997;51.274;22.506;2023-03-31T06:52:14;16.05;;;9.75;;
33654;SDS011;19997;51.274;22.506;2023-03-31T06:54:41;17.02;;;9.80;;
33654;SDS011;19997;51.274;22.506;2023-03-31T06:57:08;15.85;;;8.23;;
33654;SDS011;19997;51.274;22.506;2023-03-31T06:59:37;12.63;;;8.57;;
33654;SDS011;19997;51.274;22.506;2023-03-31T07:02:04;19.85;;;10.15;;
33654;SDS011;19997;51.274;22.506;2023-03-31T07:04:31;18.55;;;7.90;;
33654;SDS011;19997;51.274;22.506;2023-03-31T07:06:58;20.20;;;9.05;;
33654;SDS011;19997;51.274;22.506;2023-03-31T07:09:26;16.52;;;10.27;;
33654;SDS011;19997;51.274;22.506;2023-03-31T07:11:53;16.25;;;7.78;;
33654;SDS011;19997;51.274;22.506;2023-03-31T07:14:20;17.23;;;7.95;;
33654;SDS011;19997;51.274;22.506;2023-03-31T07:16:49;11.77;;;8.13;;
33654;SDS011;19997;51.274;22.506;2023-03-31T07:19:16;13.90;;;8.23;;
33654;SDS011;19997;51.274;22.506;2023-03-31T07:21:43;13.93;;;8.80;;
33654;SDS011;19997;51.274;22.506;2023-03-31T07:24:10;18.45;;;9.05;;
33654;SDS011;19997;51.274;22.506;2023-03-31T07:26:37;17.00;;;9.55;;
33654;SDS011;19997;51.274;22.506;2023-03-31T07:29:04;13.00;;;8.15;;
33654;SDS011;19997;51.274;22.506;2023-03-31T07:31:32;14.30;;;8.75;;
33654;SDS011;19997;51.274;22.506;2023-03-31T07:34:01;13.82;;;8.95;;
33654;SDS011;19997;51.274;22.506;2023-03-31T07:36:29;13.48;;;8.65;;
33654;SDS011;19997;51.274;22.506;2023-03-31T07:38:56;12.50;;;8.13;;
33654;SDS011;19997;51.274;22.506;2023-03-31T07:41:23;15.95;;;9.45;;
33654;SDS011;19997;51.274;22.506;2023-03-31T07:43:50;11.20;;;8.25;;
33654;SDS011;19997;51.274;22.506;2023-03-31T07:46:18;14.27;;;8.32;;
33654;SDS011;19997;51.274;22.506;2023-03-31T07:48:47;14.90;;;8.93;;
33654;SDS011;19997;51.274;22.506;2023-03-31T07:51:17;12.80;;;8.55;;
33654;SDS011;19997;51.274;22.506;2023-03-31T07:53:46;14.63;;;8.45;;
33654;SDS011;19997;51.274;22.506;2023-03-31T07:56:16;19.00;;;9.32;;
33654;SDS011;19997;51.274;22.506;2023-03-31T07:58:44;14.30;;;8.88;;
33654;SDS011;19997;51.274;22.506;2023-03-31T08:01:12;15.88;;;8.32;;
33654;SDS011;19997;51.274;22.506;2023-03-31T08:03:41;18.25;;;9.55;;
33654;SDS011;19997;51.274;22.506;2023-03-31T08:06:08;17.08;;;8.20;;
33654;SDS011;19997;51.274;22.506;2023-03-31T08:08:37;20.05;;;8.45;;
33654;SDS011;19997;51.274;22.506;2023-03-31T08:11:07;12.20;;;8.18;;
33654;SDS011;19997;51.274;22.506;2023-03-31T08:13:35;16.42;;;8.25;;
33654;SDS011;19997;51.274;22.506;2023-03-31T08:16:02;14.73;;;8.05;;
33654;SDS011;19997;51.274;22.506;2023-03-31T08:18:29;14.70;;;8.20;;
33654;SDS011;19997;51.274;22.506;2023-03-31T08:20:56;16.30;;;7.65;;
33654;SDS011;19997;51.274;22.506;2023-03-31T08:23:23;11.82;;;7.53;;
33654;SDS011;19997;51.274;22.506;2023-03-31T08:25:52;15.90;;;7.95;;
33654;SDS011;19997;51.274;22.506;2023-03-31T08:28:19;10.63;;;7.32;;
33654;SDS011;19997;51.274;22.506;2023-03-31T08:30:46;11.80;;;7.13;;
33654;SDS011;19997;51.274;22.506;2023-03-31T08:33:13;14.90;;;7.90;;
33654;SDS011;19997;51.274;22.506;2023-03-31T08:35:40;14.43;;;6.97;;
33654;SDS011;19997;51.274;22.506;2023-03-31T08:38:07;14.30;;;7.75;;
33654;SDS011;19997;51.274;22.506;2023-03-31T08:40:34;13.20;;;8.00;;
33654;SDS011;19997;51.274;22.506;2023-03-31T08:43:07;8.32;;;6.22;;
33654;SDS011;19997;51.274;22.506;2023-03-31T08:45:41;10.95;;;7.35;;
33654;SDS011;19997;51.274;22.506;2023-03-31T08:48:13;10.85;;;7.15;;
33654;SDS011;19997;51.274;22.506;2023-03-31T08:50:50;10.38;;;6.63;;
33654;SDS011;19997;51.274;22.506;2023-03-31T08:53:21;16.08;;;6.93;;
33654;SDS011;19997;51.274;22.506;2023-03-31T08:55:52;13.40;;;7.38;;
33654;SDS011;19997;51.274;22.506;2023-03-31T08:58:26;13.10;;;7.40;;
33654;SDS011;19997;51.274;22.506;2023-03-31T09:01:01;15.50;;;7.23;;
33654;SDS011;19997;51.274;22.506;2023-03-31T09:03:34;11.98;;;6.78;;
33654;SDS011;19997;51.274;22.506;2023-03-31T09:06:07;12.10;;;7.05;;
33654;SDS011;19997;51.274;22.506;2023-03-31T09:08:40;14.70;;;7.07;;
33654;SDS011;19997;51.274;22.506;2023-03-31T09:11:10;13.75;;;8.32;;
33654;SDS011;19997;51.274;22.506;2023-03-31T09:13:52;20.17;;;8.35;;
33654;SDS011;19997;51.274;22.506;2023-03-31T09:16:30;14.88;;;8.13;;
33654;SDS011;19997;51.274;22.506;2023-03-31T09:19:10;14.00;;;7.22;;
33654;SDS011;19997;51.274;22.506;2023-03-31T09:21:42;13.48;;;7.63;;
33654;SDS011;19997;51.274;22.506;2023-03-31T09:24:12;14.75;;;8.07;;
33654;SDS011;19997;51.274;22.506;2023-03-31T09:26:45;13.65;;;7.63;;
33654;SDS011;19997;51.274;22.506;2023-03-31T09:29:20;14.23;;;8.10;;
33654;SDS011;19997;51.274;22.506;2023-03-31T09:31:51;15.95;;;7.95;;
33654;SDS011;19997;51.274;22.506;2023-03-31T09:34:23;17.95;;;6.57;;
33654;SDS011;19997;51.274;22.506;2023-03-31T09:36:51;13.13;;;7.40;;
33654;SDS011;19997;51.274;22.506;2023-03-31T09:39:18;11.43;;;7.57;;
33654;SDS011;19997;51.274;22.506;2023-03-31T09:41:46;9.32;;;7.25;;
33654;SDS011;19997;51.274;22.506;2023-03-31T09:44:24;11.65;;;7.90;;
33654;SDS011;19997;51.274;22.506;2023-03-31T09:46:53;13.30;;;7.53;;
33654;SDS011;19997;51.274;22.506;2023-03-31T09:49:21;14.48;;;8.68;;
33654;SDS011;19997;51.274;22.506;2023-03-31T09:51:56;18.73;;;9.55;;
33654;SDS011;19997;51.274;22.506;2023-03-31T09:54:35;20.05;;;8.43;;
33654;SDS011;19997;51.274;22.506;2023-03-31T09:57:14;12.05;;;7.50;;
33654;SDS011;19997;51.274;22.506;2023-03-31T09:59:50;11.90;;;7.95;;
33654;SDS011;19997;51.274;22.506;2023-03-31T10:02:33;10.23;;;6.13;;
33654;SDS011;19997;51.274;22.506;2023-03-31T10:05:02;14.13;;;6.13;;
33654;SDS011;19997;51.274;22.506;2023-03-31T10:07:31;11.88;;;5.32;;
33654;SDS011;19997;51.274;22.506;2023-03-31T10:09:58;9.20;;;5.93;;
33654;SDS011;19997;51.274;22.506;2023-03-31T10:12:27;13.00;;;5.72;;
33654;SDS011;19997;51.274;22.506;2023-03-31T10:15:10;10.15;;;5.30;;
33654;SDS011;19997;51.274;22.506;2023-03-31T10:17:43;9.20;;;6.10;;
33654;SDS011;19997;51.274;22.506;2023-03-31T10:20:17;11.50;;;6.00;;
33654;SDS011;19997;51.274;22.506;2023-03-31T10:22:49;10.25;;;5.47;;
33654;SDS011;19997;51.274;22.506;2023-03-31T10:25:17;8.65;;;5.63;;
33654;SDS011;19997;51.274;22.506;2023-03-31T10:27:47;11.60;;;6.97;;
33654;SDS011;19997;51.274;22.506;2023-03-31T10:30:20;6.75;;;4.03;;
33654;SDS011;19997;51.274;22.506;2023-03-31T10:32:48;8.05;;;4.22;;
33654;SDS011;19997;51.274;22.506;2023-03-31T10:35:21;7.57;;;3.97;;
33654;SDS011;19997;51.274;22.506;2023-03-31T10:37:53;6.68;;;4.18;;
33654;SDS011;19997;51.274;22.506;2023-03-31T10:40:23;11.10;;;3.72;;
33654;SDS011;19997;51.274;22.506;2023-03-31T10:42:58;10.88;;;4.47;;
33654;SDS011;19997;51.274;22.506;2023-03-31T10:45:30;8.85;;;3.53;;
33654;SDS011;19997;51.274;22.506;2023-03-31T10:48:03;8.77;;;4.25;;
33654;SDS011;19997;51.274;22.506;2023-03-31T10:50:33;9.38;;;3.60;;
33654;SDS011;19997;51.274;22.506;2023-03-31T10:53:02;6.32;;;3.08;;
33654;SDS011;19997;51.274;22.506;2023-03-31T10:55:32;7.95;;;4.07;;
33654;SDS011;19997;51.274;22.506;2023-03-31T10:58:04;7.43;;;4.30;;
33654;SDS011;19997;51.274;22.506;2023-03-31T11:00:48;7.95;;;4.53;;
33654;SDS011;19997;51.274;22.506;2023-03-31T11:03:30;9.95;;;3.20;;
33654;SDS011;19997;51.274;22.506;2023-03-31T11:06:11;12.23;;;3.72;;
33654;SDS011;19997;51.274;22.506;2023-03-31T11:08:45;9.27;;;3.95;;
33654;SDS011;19997;51.274;22.506;2023-03-31T11:11:23;6.43;;;3.17;;
33654;SDS011;19997;51.274;22.506;2023-03-31T11:14:03;5.55;;;3.60;;
33654;SDS011;19997;51.274;22.506;2023-03-31T11:16:41;6.75;;;4.28;;
33654;SDS011;19997;51.274;22.506;2023-03-31T11:19:18;10.55;;;4.05;;
33654;SDS011;19997;51.274;22.506;2023-03-31T11:21:56;9.98;;;4.03;;
33654;SDS011;19997;51.274;22.506;2023-03-31T11:24:33;6.60;;;4.28;;
33654;SDS011;19997;51.274;22.506;2023-03-31T11:27:16;7.88;;;3.38;;
33654;SDS011;19997;51.274;22.506;2023-03-31T11:30:01;6.28;;;3.92;;
33654;SDS011;19997;51.274;22.506;2023-03-31T11:32:39;7.18;;;4.70;;
33654;SDS011;19997;51.274;22.506;2023-03-31T11:35:17;13.73;;;5.20;;
33654;SDS011;19997;51.274;22.506;2023-03-31T11:38:04;10.90;;;5.40;;
33654;SDS011;19997;51.274;22.506;2023-03-31T11:40:46;10.23;;;5.38;;
33654;SDS011;19997;51.274;22.506;2023-03-31T11:43:23;11.38;;;4.75;;
33654;SDS011;19997;51.274;22.506;2023-03-31T11:45:57;11.20;;;5.18;;
33654;SDS011;19997;51.274;22.506;2023-03-31T11:48:32;8.32;;;5.47;;
33654;SDS011;19997;51.274;22.506;2023-03-31T11:51:06;13.00;;;5.70;;
33654;SDS011;19997;51.274;22.506;2023-03-31T11:53:40;9.02;;;4.32;;
33654;SDS011;19997;51.274;22.506;2023-03-31T11:56:09;6.35;;;4.07;;
33654;SDS011;19997;51.274;22.506;2023-03-31T11:58:39;4.93;;;3.72;;
33654;SDS011;19997;51.274;22.506;2023-03-31T12:01:13;9.18;;;4.28;;
33654;SDS011;19997;51.274;22.506;2023-03-31T12:03:49;13.27;;;5.22;;
33654;SDS011;19997;51.274;22.506;2023-03-31T12:06:24;13.57;;;4.97;;
33654;SDS011;19997;51.274;22.506;2023-03-31T12:09:04;10.90;;;5.25;;
33654;SDS011;19997;51.274;22.506;2023-03-31T12:11:39;12.18;;;5.00;;
33654;SDS011;19997;51.274;22.506;2023-03-31T12:14:16;8.18;;;5.25;;
33654;SDS011;19997;51.274;22.506;2023-03-31T12:16:50;12.63;;;5.30;;
33654;SDS011;19997;51.274;22.506;2023-03-31T12:19:23;13.18;;;5.68;;
33654;SDS011;19997;51.274;22.506;2023-03-31T12:21:54;14.23;;;5.75;;
33654;SDS011;19997;51.274;22.506;2023-03-31T12:24:26;10.27;;;5.15;;
33654;SDS011;19997;51.274;22.506;2023-03-31T12:26:56;10.70;;;5.63;;
33654;SDS011;19997;51.274;22.506;2023-03-31T12:29:31;15.68;;;6.25;;
33654;SDS011;19997;51.274;22.506;2023-03-31T12:32:02;8.05;;;5.15;;
33654;SDS011;19997;51.274;22.506;2023-03-31T12:34:33;8.52;;;5.88;;
33654;SDS011;19997;51.274;22.506;2023-03-31T12:37:07;13.77;;;6.03;;
33654;SDS011;19997;51.274;22.506;2023-03-31T12:39:56;9.30;;;5.32;;
33654;SDS011;19997;51.274;22.506;2023-03-31T12:45:25;12.38;;;5.10;;
33654;SDS011;19997;51.274;22.506;2023-03-31T12:48:10;10.63;;;5.18;;
33654;SDS011;19997;51.274;22.506;2023-03-31T12:50:53;10.18;;;3.58;;
33654;SDS011;19997;51.274;22.506;2023-03-31T12:53:31;14.10;;;5.10;;
33654;SDS011;19997;51.274;22.506;2023-03-31T12:56:05;8.20;;;3.80;;
33654;SDS011;19997;51.274;22.506;2023-03-31T12:58:36;10.20;;;4.65;;
33654;SDS011;19997;51.274;22.506;2023-03-31T13:01:06;13.15;;;5.45;;
33654;SDS011;19997;51.274;22.506;2023-03-31T13:03:42;11.57;;;5.47;;
33654;SDS011;19997;51.274;22.506;2023-03-31T13:11:56;10.68;;;5.18;;
33654;SDS011;19997;51.274;22.506;2023-03-31T13:14:23;14.25;;;4.88;;
33654;SDS011;19997;51.274;22.506;2023-03-31T13:19:38;8.23;;;4.18;;
33654;SDS011;19997;51.274;22.506;2023-03-31T13:22:25;19.13;;;4.97;;
33654;SDS011;19997;51.274;22.506;2023-03-31T13:25:08;14.70;;;4.35;;
33654;SDS011;19997;51.274;22.506;2023-03-31T13:28:07;13.20;;;5.03;;
33654;SDS011;19997;51.274;22.506;2023-03-31T13:30:50;15.88;;;5.13;;
33654;SDS011;19997;51.274;22.506;2023-03-31T13:33:22;12.77;;;4.20;;
33654;SDS011;19997;51.274;22.506;2023-03-31T13:35:53;9.40;;;3.58;;
33654;SDS011;19997;51.274;22.506;2023-03-31T13:38:34;9.50;;;3.72;;
33654;SDS011;19997;51.274;22.506;2023-03-31T13:41:26;8.15;;;3.78;;
33654;SDS011;19997;51.274;22.506;2023-03-31T13:47:21;9.43;;;3.58;;
33654;SDS011;19997;51.274;22.506;2023-03-31T13:53:13;17.02;;;4.95;;
33654;SDS011;19997;51.274;22.506;2023-03-31T13:55:55;10.95;;;3.22;;
33654;SDS011;19997;51.274;22.506;2023-03-31T14:01:44;11.45;;;2.70;;
33654;SDS011;19997;51.274;22.506;2023-03-31T14:04:32;7.72;;;3.05;;
33654;SDS011;19997;51.274;22.506;2023-03-31T14:07:11;11.88;;;4.10;;
33654;SDS011;19997;51.274;22.506;2023-03-31T14:09:42;10.13;;;3.05;;
33654;SDS011;19997;51.274;22.506;2023-03-31T14:12:21;8.23;;;2.83;;
33654;SDS011;19997;51.274;22.506;2023-03-31T14:14:55;10.68;;;3.17;;
33654;SDS011;19997;51.274;22.506;2023-03-31T14:17:22;7.88;;;3.03;;
33654;SDS011;19997;51.274;22.506;2023-03-31T14:22:37;5.95;;;2.50;;
33654;SDS011;19997;51.274;22.506;2023-03-31T14:25:12;7.75;;;3.10;;
33654;SDS011;19997;51.274;22.506;2023-03-31T14:27:52;13.65;;;3.50;;
33654;SDS011;19997;51.274;22.506;2023-03-31T14:30:32;5.97;;;2.90;;
33654;SDS011;19997;51.274;22.506;2023-03-31T14:33:11;7.93;;;3.10;;
33654;SDS011;19997;51.274;22.506;2023-03-31T14:35:50;7.33;;;3.30;;
33654;SDS011;19997;51.274;22.506;2023-03-31T14:38:26;6.47;;;3.63;;
33654;SDS011;19997;51.274;22.506;2023-03-31T14:40:56;16.20;;;5.90;;
33654;SDS011;19997;51.274;22.506;2023-03-31T14:43:27;10.57;;;3.20;;
33654;SDS011;19997;51.274;22.506;2023-03-31T14:45:58;6.32;;;3.22;;
33654;SDS011;19997;51.274;22.506;2023-03-31T14:48:26;9.25;;;3.17;;
33654;SDS011;19997;51.274;22.506;2023-03-31T14:50:57;7.28;;;3.00;;
33654;SDS011;19997;51.274;22.506;2023-03-31T14:53:26;28.23;;;22.27;;
33654;SDS011;19997;51.274;22.506;2023-03-31T14:55:56;9.70;;;4.97;;
33654;SDS011;19997;51.274;22.506;2023-03-31T14:58:28;9.93;;;4.18;;
33654;SDS011;19997;51.274;22.506;2023-03-31T15:00:59;5.05;;;2.85;;
33654;SDS011;19997;51.274;22.506;2023-03-31T15:03:28;5.88;;;3.13;;
33654;SDS011;19997;51.274;22.506;2023-03-31T15:05:59;7.93;;;2.40;;
33654;SDS011;19997;51.274;22.506;2023-03-31T15:08:28;11.88;;;4.60;;
33654;SDS011;19997;51.274;22.506;2023-03-31T15:10:58;7.93;;;3.42;;
33654;SDS011;19997;51.274;22.506;2023-03-31T15:13:29;8.90;;;3.03;;
33654;SDS011;19997;51.274;22.506;2023-03-31T15:16:03;12.55;;;4.60;;
33654;SDS011;19997;51.274;22.506;2023-03-31T15:18:57;9.35;;;3.97;;
33654;SDS011;19997;51.274;22.506;2023-03-31T15:21:29;9.02;;;3.92;;
33654;SDS011;19997;51.274;22.506;2023-03-31T15:23:57;7.68;;;3.22;;
33654;SDS011;19997;51.274;22.506;2023-03-31T15:26:25;8.55;;;2.92;;
33654;SDS011;19997;51.274;22.506;2023-03-31T15:28:57;11.90;;;4.22;;
33654;SDS011;19997;51.274;22.506;2023-03-31T15:31:29;5.30;;;2.92;;
33654;SDS011;19997;51.274;22.506;2023-03-31T15:33:57;11.75;;;5.03;;